createdAt,value
2018-12-21T00:01:40.310Z,56.63
2018-12-21T00:04:14.534Z,53.07
2018-12-21T00:06:44.920Z,58.03
2018-12-21T00:09:18.446Z,50.97
2018-12-21T00:11:52.048Z,53.13
2018-12-21T00:14:29.983Z,55.53
2018-12-21T00:17:04.426Z,57.50
2018-12-21T00:19:38.904Z,52.27
2018-12-21T00:22:11.958Z,56.40
2018-12-21T00:24:44.874Z,55.97
2018-12-21T00:27:19.237Z,57.60
2018-12-21T00:29:54.302Z,55.10
2018-12-21T00:32:33.347Z,50.73
2018-12-21T00:35:13.259Z,57.10
2018-12-21T00:37:53.840Z,55.93
2018-12-21T00:40:32.791Z,54.20
2018-12-21T00:43:05.102Z,55.60
2018-12-21T00:45:41.472Z,53.60
2018-12-21T00:48:11.185Z,52.03
2018-12-21T00:50:46.176Z,58.50
2018-12-21T00:53:16.137Z,52.53
2018-12-21T00:55:46.198Z,53.27
2018-12-21T00:58:18.883Z,51.40
2018-12-21T01:00:47.160Z,51.20
2018-12-21T01:03:17.864Z,51.87
2018-12-21T01:05:47.813Z,57.03
2018-12-21T01:08:21.203Z,51.20
2018-12-21T01:10:51.548Z,61.37
2018-12-21T01:13:22.291Z,60.83
2018-12-21T01:15:52.406Z,62.67
2018-12-21T01:18:22.603Z,58.33
2018-12-21T01:20:55.870Z,64.33
2018-12-21T01:23:30.770Z,62.97
2018-12-21T01:26:04.675Z,63.87
2018-12-21T01:28:37.332Z,57.43
2018-12-21T01:31:10.312Z,54.53
2018-12-21T01:33:44.058Z,58.50
2018-12-21T01:36:18.763Z,57.17
2018-12-21T01:38:52.728Z,58.33
2018-12-21T01:41:27.666Z,56.03
2018-12-21T01:44:06.795Z,58.47
2018-12-21T01:46:41.647Z,58.97
2018-12-21T01:49:14.470Z,65.27
2018-12-21T01:51:48.655Z,59.83
2018-12-21T01:54:19.353Z,68.97
2018-12-21T01:56:51.041Z,67.00
2018-12-21T01:59:21.366Z,70.17
2018-12-21T02:01:59.640Z,67.00
2018-12-21T02:04:34.571Z,67.97
2018-12-21T02:07:05.329Z,72.40
2018-12-21T02:09:37.936Z,62.37
2018-12-21T02:12:11.022Z,78.07
2018-12-21T02:14:41.311Z,76.80
2018-12-21T02:17:11.360Z,72.17
2018-12-21T02:19:44.114Z,77.33
2018-12-21T02:22:17.264Z,70.73
2018-12-21T02:24:51.416Z,69.67
2018-12-21T02:27:24.140Z,67.10
2018-12-21T02:30:01.582Z,70.60
2018-12-21T02:32:34.208Z,78.00
2018-12-21T02:35:05.875Z,76.60
2018-12-21T02:37:41.170Z,78.90
2018-12-21T02:40:14.154Z,80.07
2018-12-21T02:42:47.085Z,70.63
2018-12-21T02:45:21.272Z,73.13
2018-12-21T02:47:55.609Z,80.37
2018-12-21T02:50:30.378Z,78.07
2018-12-21T02:53:07.342Z,77.53
2018-12-21T02:55:40.685Z,76.07
2018-12-21T02:58:11.701Z,71.57
2018-12-21T03:00:45.246Z,71.93
2018-12-21T03:03:15.885Z,68.77
2018-12-21T03:05:48.464Z,71.27
2018-12-21T03:08:19.299Z,72.43
2018-12-21T03:10:52.560Z,76.10
2018-12-21T03:13:24.193Z,68.60
2018-12-21T03:15:56.973Z,67.90
2018-12-21T03:18:29.620Z,67.83
2018-12-21T03:20:59.652Z,69.50
2018-12-21T03:23:30.611Z,70.00
2018-12-21T03:26:04.488Z,66.83
2018-12-21T03:28:34.478Z,72.03
2018-12-21T03:31:07.307Z,64.83
2018-12-21T03:33:40.102Z,68.23
2018-12-21T03:36:11.009Z,56.80
2018-12-21T03:38:45.022Z,59.50
2018-12-21T03:41:28.315Z,58.57
2018-12-21T03:44:02.894Z,60.47
2018-12-21T03:46:36.866Z,60.03
2018-12-21T03:49:07.527Z,49.27
2018-12-21T03:51:47.770Z,51.00
2018-12-21T03:54:22.821Z,48.97
2018-12-21T03:56:56.817Z,52.00
2018-12-21T03:59:29.811Z,52.20
2018-12-21T04:02:03.875Z,54.47
2018-12-21T04:04:34.590Z,53.60
2018-12-21T04:07:07.555Z,48.60
2018-12-21T04:09:38.340Z,51.33
2018-12-21T04:12:11.260Z,47.73
2018-12-21T04:14:45.273Z,52.43
2018-12-21T04:17:16.636Z,51.63
2018-12-21T04:19:47.358Z,51.70
2018-12-21T04:22:21.997Z,51.77
2018-12-21T04:24:52.488Z,57.00
2018-12-21T04:27:22.960Z,56.17
2018-12-21T04:29:56.685Z,52.90
2018-12-21T04:32:29.634Z,54.20
2018-12-21T04:35:06.826Z,55.83
2018-12-21T04:37:43.319Z,48.00
2018-12-21T04:40:17.406Z,50.57
2018-12-21T04:42:48.798Z,52.97
2018-12-21T04:45:23.387Z,49.80
2018-12-21T04:47:53.604Z,53.97
2018-12-21T04:50:23.615Z,52.50
2018-12-21T04:52:53.713Z,51.33
2018-12-21T04:55:23.708Z,50.63
2018-12-21T04:57:54.513Z,51.30
2018-12-21T05:00:26.199Z,48.77
2018-12-21T05:03:00.827Z,52.60
2018-12-21T05:05:34.124Z,53.13
2018-12-21T05:08:07.826Z,50.50
2018-12-21T05:10:40.756Z,53.40
2018-12-21T05:13:11.733Z,52.37
2018-12-21T05:15:45.787Z,53.93
2018-12-21T05:18:26.791Z,56.23
2018-12-21T05:20:58.061Z,55.43
2018-12-21T05:23:31.123Z,53.57
2018-12-21T05:26:05.136Z,54.73
2018-12-21T05:28:38.473Z,46.87
2018-12-21T05:31:28.518Z,56.27
2018-12-21T05:34:03.575Z,50.57
2018-12-21T05:36:34.004Z,52.87
2018-12-21T05:39:05.484Z,51.27
2018-12-21T05:41:36.131Z,52.13
2018-12-21T05:44:06.455Z,55.70
2018-12-21T05:46:37.803Z,53.17
2018-12-21T05:49:11.546Z,52.90
2018-12-21T05:51:45.765Z,51.33
2018-12-21T05:54:30.117Z,50.13
2018-12-21T05:57:00.971Z,46.30
2018-12-21T05:59:31.709Z,52.63
2018-12-21T06:02:05.862Z,55.50
2018-12-21T06:04:45.373Z,52.90
2018-12-21T06:07:19.595Z,57.30
2018-12-21T06:09:52.913Z,55.40
2018-12-21T06:12:30.137Z,57.80
2018-12-21T06:15:00.248Z,61.90
2018-12-21T06:17:32.964Z,71.23
2018-12-21T06:20:06.361Z,71.30
2018-12-21T06:22:40.583Z,66.20
2018-12-21T06:25:22.216Z,65.13
2018-12-21T06:27:56.333Z,66.93
2018-12-21T06:30:29.749Z,67.00
2018-12-21T06:33:03.206Z,67.33
2018-12-21T06:35:37.397Z,62.93
2018-12-21T06:38:14.159Z,58.27
2018-12-21T06:40:43.221Z,68.27
2018-12-21T06:43:17.935Z,70.17
2018-12-21T06:45:48.063Z,64.80
2018-12-21T06:48:20.670Z,65.37
2018-12-21T06:50:50.810Z,64.87
2018-12-21T06:53:21.453Z,68.10
2018-12-21T06:55:52.824Z,64.20
2018-12-21T06:58:27.892Z,69.80
2018-12-21T07:00:58.338Z,59.83
2018-12-21T07:03:28.316Z,59.17
2018-12-21T07:05:59.329Z,60.47
2018-12-21T07:08:36.583Z,62.57
2018-12-21T07:11:06.846Z,59.63
2018-12-21T07:13:39.524Z,53.43
2018-12-21T07:16:14.454Z,56.70
2018-12-21T07:18:49.325Z,60.47
2018-12-21T07:21:23.978Z,57.37
2018-12-21T07:23:54.582Z,59.87
2018-12-21T07:26:39.121Z,64.53
2018-12-21T07:29:09.841Z,64.40
2018-12-21T07:31:45.410Z,65.07
2018-12-21T07:34:16.418Z,64.63
2018-12-21T07:36:46.519Z,65.40
2018-12-21T07:39:17.439Z,69.30
2018-12-21T07:41:50.967Z,74.93
2018-12-21T07:44:24.170Z,78.00
2018-12-21T07:46:55.033Z,85.83
2018-12-21T07:49:25.139Z,85.27
2018-12-21T07:51:55.569Z,82.50
2018-12-21T07:54:25.553Z,77.43
2018-12-21T07:56:55.598Z,81.73
2018-12-21T07:59:29.121Z,83.37
2018-12-21T08:01:59.030Z,82.70
2018-12-21T08:04:32.418Z,76.70
2018-12-21T08:07:06.400Z,85.43
2018-12-21T08:09:36.822Z,85.07
2018-12-21T08:12:10.325Z,88.67
2018-12-21T08:14:41.607Z,89.33
2018-12-21T08:17:14.857Z,84.30
2018-12-21T08:19:49.424Z,91.60
2018-12-21T08:22:20.267Z,75.27
2018-12-21T08:24:50.155Z,78.97
2018-12-21T08:27:23.633Z,82.40
2018-12-21T08:29:59.061Z,70.80
2018-12-21T08:32:33.495Z,78.67
2018-12-21T08:35:03.415Z,80.00
2018-12-21T08:37:33.143Z,77.73
2018-12-21T08:40:06.647Z,70.23
2018-12-21T08:42:40.681Z,76.90
2018-12-21T08:45:13.840Z,76.37
2018-12-21T08:47:44.382Z,76.50
2018-12-21T08:50:18.220Z,78.03
2018-12-21T08:52:52.333Z,76.37
2018-12-21T08:55:22.305Z,69.63
2018-12-21T08:57:58.811Z,73.33
2018-12-21T09:00:31.812Z,71.53
2018-12-21T09:03:08.325Z,69.37
2018-12-21T09:05:42.650Z,74.80
2018-12-21T09:08:12.849Z,74.57
2018-12-21T09:10:47.661Z,66.43
2018-12-21T09:13:22.523Z,69.90
2018-12-21T09:15:55.455Z,66.50
2018-12-21T09:18:25.468Z,70.57
2018-12-21T09:20:55.385Z,70.10
2018-12-21T09:23:29.572Z,66.13
2018-12-21T09:26:00.330Z,70.97
2018-12-21T09:28:30.209Z,69.47
2018-12-21T09:31:00.111Z,67.57
2018-12-21T09:33:30.845Z,72.13
2018-12-21T09:36:02.545Z,73.40
2018-12-21T09:38:35.988Z,76.50
2018-12-21T09:41:11.003Z,70.27
2018-12-21T09:53:21.863Z,54.43
2018-12-21T09:55:56.957Z,56.93
2018-12-21T09:58:30.359Z,59.40
2018-12-21T10:01:03.270Z,60.37
2018-12-21T10:03:33.467Z,62.83
2018-12-21T10:06:04.192Z,57.27
2018-12-21T10:08:34.087Z,62.87
2018-12-21T10:11:03.833Z,58.13
2018-12-21T10:13:36.447Z,63.37
2018-12-21T10:16:06.825Z,62.53
2018-12-21T10:18:40.009Z,61.80
2018-12-21T10:21:08.514Z,61.30
2018-12-21T10:23:43.004Z,61.57
2018-12-21T10:26:13.053Z,56.00
2018-12-21T10:28:43.652Z,58.63
2018-12-21T10:31:18.580Z,69.17
2018-12-21T10:33:52.036Z,64.30
2018-12-21T10:36:23.409Z,64.83
2018-12-21T10:38:56.018Z,64.73
2018-12-21T10:41:29.027Z,63.87
2018-12-21T10:44:01.784Z,60.17
2018-12-21T10:46:34.686Z,67.27
2018-12-21T10:49:11.275Z,70.03
2018-12-21T10:51:47.816Z,66.80
2018-12-21T10:54:26.998Z,72.63
2018-12-21T10:57:00.898Z,73.87
2018-12-21T10:59:31.241Z,71.37
2018-12-21T11:02:07.801Z,73.17
2018-12-21T11:04:38.400Z,73.10
2018-12-21T11:07:08.229Z,83.27
2018-12-21T11:09:38.942Z,73.93
2018-12-21T11:12:11.818Z,75.20
2018-12-21T11:14:41.937Z,72.23
2018-12-21T11:17:11.956Z,72.40
2018-12-21T11:19:48.494Z,70.17
2018-12-21T11:22:21.419Z,81.90
2018-12-21T11:24:52.187Z,79.77
2018-12-21T11:27:22.718Z,72.97
2018-12-21T11:29:52.521Z,70.63
2018-12-21T11:32:25.323Z,75.97
2018-12-21T11:34:55.464Z,71.30
2018-12-21T11:37:25.928Z,69.87
2018-12-21T11:39:56.631Z,71.33
2018-12-21T11:42:29.454Z,65.03
2018-12-21T11:45:02.601Z,71.97
2018-12-21T11:47:37.585Z,72.67
2018-12-21T11:50:10.959Z,69.27
2018-12-21T11:52:44.045Z,73.63
2018-12-21T11:55:17.002Z,79.23
2018-12-21T11:57:49.727Z,63.87
2018-12-21T12:00:27.443Z,66.50
2018-12-21T12:02:57.447Z,62.43
2018-12-21T12:05:28.206Z,67.67
2018-12-21T12:08:05.581Z,71.57
2018-12-21T12:10:38.996Z,65.00
2018-12-21T12:13:09.395Z,67.20
2018-12-21T12:15:40.115Z,70.93
2018-12-21T12:18:10.113Z,65.90
2018-12-21T12:20:40.825Z,70.80
2018-12-21T12:23:13.791Z,79.63
2018-12-21T12:25:40.591Z,73.90
2018-12-21T12:28:08.105Z,76.63
2018-12-21T12:30:38.876Z,72.50
2018-12-21T12:46:01.747Z,73.20
2018-12-21T12:48:31.851Z,70.50
2018-12-21T12:51:01.834Z,73.03
2018-12-21T12:53:32.577Z,65.40
2018-12-21T12:56:05.134Z,62.70
2018-12-21T12:58:39.033Z,67.43
2018-12-21T13:01:15.674Z,68.47
2018-12-21T13:03:50.417Z,72.53
2018-12-21T13:06:20.732Z,72.07
2018-12-21T13:08:54.077Z,73.20
2018-12-21T13:11:26.975Z,86.03
2018-12-21T13:13:57.152Z,72.73
2018-12-21T13:16:27.042Z,73.47
2018-12-21T13:19:00.483Z,74.90
2018-12-21T13:21:33.936Z,69.13
2018-12-21T13:24:04.012Z,67.67
2018-12-21T13:26:34.077Z,79.00
2018-12-21T13:29:11.018Z,72.80
2018-12-21T13:31:44.510Z,80.83
2018-12-21T13:34:19.376Z,80.23
2018-12-21T13:36:50.380Z,78.47
2018-12-21T13:39:23.145Z,78.10
2018-12-21T13:41:56.377Z,71.53
2018-12-21T13:44:26.926Z,69.13
2018-12-21T13:46:56.890Z,71.87
2018-12-21T13:49:31.310Z,70.73
2018-12-21T13:52:06.065Z,73.77
2018-12-21T13:54:36.447Z,76.03
2018-12-21T13:57:06.278Z,78.10
2018-12-21T13:59:41.058Z,84.03
2018-12-21T14:02:14.013Z,79.97
2018-12-21T14:04:47.668Z,84.90
2018-12-21T14:07:21.706Z,89.80
2018-12-21T14:09:55.338Z,85.60
2018-12-21T14:12:35.095Z,85.07
2018-12-21T14:15:10.178Z,78.77
2018-12-21T14:17:43.062Z,74.83
2018-12-21T14:20:13.271Z,82.77
2018-12-21T14:22:45.802Z,87.40
2018-12-21T14:25:33.406Z,81.80
2018-12-21T14:28:11.292Z,89.30
2018-12-21T14:30:45.407Z,92.13
2018-12-21T14:33:15.263Z,88.30
2018-12-21T14:35:46.062Z,81.50
2018-12-21T14:38:21.229Z,84.73
2018-12-21T14:40:54.716Z,89.07
2018-12-21T14:43:27.820Z,81.33
2018-12-21T14:46:02.283Z,83.37
2018-12-21T14:48:32.668Z,78.17
2018-12-21T14:51:06.502Z,71.90
2018-12-21T14:53:37.316Z,80.20
2018-12-21T14:56:07.438Z,85.23
2018-12-21T14:58:40.715Z,77.40
2018-12-21T15:04:00.779Z,77.33
2018-12-21T15:11:59.144Z,85.57
2018-12-21T15:14:40.839Z,92.23
2018-12-21T15:17:13.823Z,86.80
2018-12-21T15:19:55.157Z,92.33
2018-12-21T15:22:32.274Z,91.30
2018-12-21T15:25:02.387Z,87.80
2018-12-21T15:27:38.871Z,93.57
2018-12-21T15:30:13.925Z,83.77
2018-12-21T15:32:46.776Z,93.07
2018-12-21T15:35:17.420Z,88.90
2018-12-21T15:37:58.149Z,87.50
2018-12-21T15:40:35.351Z,80.50
2018-12-21T15:43:05.881Z,79.90
2018-12-21T15:45:35.729Z,88.47
2018-12-21T15:48:08.241Z,99.50
2018-12-21T15:50:40.127Z,106.47
2018-12-21T15:53:13.396Z,121.90
2018-12-21T15:55:54.590Z,104.40
2018-12-21T15:58:19.421Z,113.80
2018-12-21T16:00:50.127Z,118.97
2018-12-21T16:03:23.739Z,124.70
2018-12-21T16:05:57.463Z,123.43
2018-12-21T16:08:30.715Z,117.23
2018-12-21T16:11:04.997Z,99.10
2018-12-21T16:13:39.281Z,99.40
2018-12-21T16:16:09.387Z,100.37
2018-12-21T16:18:43.734Z,90.93
2018-12-21T16:21:18.998Z,86.93
2018-12-21T16:23:52.534Z,93.53
2018-12-21T16:26:22.714Z,82.87
2018-12-21T16:28:56.351Z,85.87
2018-12-21T16:31:35.115Z,79.50
2018-12-21T16:34:13.338Z,70.23
2018-12-21T16:36:43.347Z,66.27
2018-12-21T16:39:21.689Z,64.00
2018-12-21T16:41:55.739Z,75.50
2018-12-21T16:44:28.832Z,72.90
2018-12-21T16:46:59.241Z,71.37
2018-12-21T16:49:35.503Z,73.30
2018-12-21T16:52:10.231Z,63.30
2018-12-21T16:54:50.413Z,72.23
2018-12-21T16:57:31.873Z,71.40
2018-12-21T17:00:05.370Z,69.43
2018-12-21T17:02:35.839Z,62.90
2018-12-21T17:05:06.216Z,66.07
2018-12-21T17:07:36.915Z,71.53
2018-12-21T17:10:08.355Z,64.03
2018-12-21T17:12:42.407Z,60.30
2018-12-21T17:15:16.423Z,61.67
2018-12-21T17:17:50.330Z,66.23
2018-12-21T17:20:23.026Z,70.90
2018-12-21T17:22:53.534Z,72.93
2018-12-21T17:25:30.207Z,74.83
2018-12-21T17:28:03.297Z,75.73
2018-12-21T17:30:39.000Z,70.30
2018-12-21T17:33:13.343Z,66.80
2018-12-21T17:35:43.389Z,60.30
2018-12-21T17:38:14.431Z,58.27
2018-12-21T17:40:46.962Z,64.87
2018-12-21T17:43:17.125Z,58.40
2018-12-21T17:45:47.100Z,57.20
2018-12-21T17:48:17.071Z,64.03
2018-12-21T17:50:49.714Z,50.40
2018-12-21T17:53:22.414Z,50.77
2018-12-21T17:55:55.223Z,54.07
2018-12-21T17:58:30.142Z,51.70
2018-12-21T18:01:06.833Z,56.53
2018-12-21T18:03:41.010Z,50.33
2018-12-21T18:06:11.234Z,45.63
2018-12-21T18:08:47.849Z,47.90
2018-12-21T18:11:18.502Z,47.03
2018-12-21T18:13:53.081Z,51.83
2018-12-21T18:16:24.732Z,53.97
2018-12-21T18:18:57.409Z,48.20
2018-12-21T18:21:30.376Z,56.03
2018-12-21T18:24:00.479Z,54.30
2018-12-21T18:26:38.390Z,53.10
2018-12-21T18:29:09.170Z,53.40
2018-12-21T18:31:47.256Z,50.17
2018-12-21T18:34:26.609Z,47.20
2018-12-21T18:36:56.779Z,51.33
2018-12-21T18:39:29.595Z,56.90
2018-12-21T18:42:06.346Z,59.10
2018-12-21T18:44:39.426Z,61.50
2018-12-21T18:47:12.255Z,71.20
2018-12-21T18:49:42.737Z,76.73
2018-12-21T18:54:56.255Z,70.27
2018-12-21T18:57:26.421Z,66.83
2018-12-21T18:59:53.170Z,81.57
2018-12-21T19:02:32.800Z,68.43
2018-12-21T19:05:00.042Z,73.27
2018-12-21T19:10:10.963Z,68.53
2018-12-21T19:15:30.222Z,73.47
2018-12-21T19:18:00.274Z,75.47
2018-12-21T19:20:30.299Z,82.20
2018-12-21T19:23:00.401Z,85.07
2018-12-21T19:25:33.060Z,83.57
2018-12-21T19:28:07.106Z,90.83
2018-12-21T19:30:44.179Z,89.77
2018-12-21T19:33:16.863Z,86.17
2018-12-21T19:35:47.058Z,83.40
2018-12-21T19:38:17.713Z,92.07
2018-12-21T19:40:52.419Z,94.70
2018-12-21T19:43:28.150Z,101.17
2018-12-21T19:45:57.343Z,91.57
2018-12-21T19:48:29.849Z,92.20
2018-12-21T19:51:00.173Z,85.50
2018-12-21T19:53:30.816Z,94.43
2018-12-21T19:56:02.239Z,92.90
2018-12-21T19:58:36.474Z,103.33
2018-12-21T20:01:09.602Z,95.10
2018-12-21T20:03:44.123Z,97.40
2018-12-21T20:06:16.633Z,94.70
2018-12-21T20:08:49.682Z,96.60
2018-12-21T20:11:19.645Z,79.73
2018-12-21T20:13:49.760Z,80.87
2018-12-21T20:16:19.730Z,76.80
2018-12-21T20:18:49.840Z,72.20
2018-12-21T20:21:26.809Z,68.27
2018-12-21T20:23:56.533Z,69.37
2018-12-21T20:26:29.322Z,56.20
2018-12-21T20:28:59.592Z,61.00
2018-12-21T20:31:36.144Z,58.07
2018-12-21T20:34:11.082Z,52.73
2018-12-21T20:36:44.704Z,60.10
2018-12-21T20:39:18.393Z,57.03
2018-12-21T20:41:48.821Z,69.07
2018-12-21T20:44:19.758Z,61.30
2018-12-21T20:46:52.634Z,51.00
2018-12-21T20:49:25.517Z,47.50
2018-12-21T20:51:59.382Z,45.67
2018-12-21T20:54:31.918Z,44.47
2018-12-21T20:57:02.250Z,41.97
2018-12-21T20:59:32.792Z,48.83
2018-12-21T21:02:03.021Z,50.27
2018-12-21T21:04:37.721Z,41.93
2018-12-21T21:07:10.608Z,45.40
2018-12-21T21:09:41.291Z,49.07
2018-12-21T21:12:15.300Z,45.30
2018-12-21T21:14:57.198Z,56.17
2018-12-21T21:17:30.012Z,50.93
2018-12-21T21:20:00.160Z,50.43
2018-12-21T21:22:31.018Z,53.50
2018-12-21T21:25:02.056Z,51.50
2018-12-21T21:27:37.033Z,58.90
2018-12-21T21:30:10.223Z,57.63
2018-12-21T21:32:43.172Z,54.80
2018-12-21T21:35:13.330Z,63.53
2018-12-21T21:37:43.117Z,60.53
2018-12-21T21:40:14.705Z,63.40
2018-12-21T21:42:45.948Z,58.97
2018-12-21T21:45:16.065Z,57.53
2018-12-21T21:47:48.721Z,56.27
2018-12-21T21:50:22.641Z,54.83
2018-12-21T21:52:56.036Z,53.13
2018-12-21T21:55:34.566Z,57.53
2018-12-21T21:58:04.995Z,60.27
2018-12-21T22:00:35.153Z,53.23
2018-12-21T22:03:05.562Z,56.77
2018-12-21T22:05:36.596Z,51.00
2018-12-21T22:08:09.783Z,44.63
2018-12-21T22:10:46.474Z,40.77
2018-12-21T22:13:16.866Z,42.10
2018-12-21T22:15:49.605Z,39.37
2018-12-21T22:18:19.712Z,33.53
2018-12-21T22:20:49.796Z,37.47
2018-12-21T22:23:23.590Z,31.27
2018-12-21T22:25:56.712Z,30.50
2018-12-21T22:28:27.420Z,31.90
2018-12-21T22:31:04.188Z,28.60
2018-12-21T22:33:38.734Z,30.60
2018-12-21T22:36:15.739Z,25.20
2018-12-21T22:38:51.612Z,28.13
2018-12-21T22:41:24.528Z,30.57
2018-12-21T22:43:57.329Z,28.77
2018-12-21T22:46:27.350Z,26.27
2018-12-21T22:48:58.055Z,27.07
2018-12-21T22:51:31.595Z,29.83
2018-12-21T22:54:06.010Z,23.03
2018-12-21T22:56:36.643Z,24.83
2018-12-21T23:11:59.256Z,21.27
2018-12-21T23:14:35.959Z,24.80
2018-12-21T23:17:09.885Z,22.27
2018-12-21T23:19:44.034Z,24.67
2018-12-21T23:22:18.752Z,21.73
2018-12-21T23:24:52.673Z,23.90
2018-12-21T23:27:22.527Z,22.57
2018-12-21T23:29:52.443Z,24.23
2018-12-21T23:32:22.345Z,26.70
2018-12-21T23:34:55.123Z,26.13
2018-12-21T23:37:25.440Z,27.40
2018-12-21T23:39:58.328Z,29.83
2018-12-21T23:42:26.731Z,26.03
2018-12-21T23:44:59.305Z,26.80
2018-12-21T23:47:33.243Z,26.90
2018-12-21T23:50:06.103Z,26.00
2018-12-21T23:52:40.994Z,27.57
2018-12-21T23:55:13.568Z,24.37
2018-12-21T23:57:46.801Z,29.53
